Time;durP1;ratioP1;P1;durP2;ratioP2;P2;SDS_P1;SDS_P2;PMS_P1;PMS_P2;Temp;Humidity;BMP_temperature;BMP_pressure;BME280_temperature;BME280_humidity;BME280_pressure;Samples;Min_cycle;Max_cycle;Signal;HPM_P1;HPM_P2
2021/10/14 00:01:14;;;;;;;6.03;5.37;;;11.50;99.90;;;;;;5019535;28;20200;-66
2021/10/14 00:03:43;;;;;;;6.97;6.27;;;11.50;99.90;;;;;;5017938;28;20232;-66
2021/10/14 00:06:09;;;;;;;6.67;6.07;;;11.50;99.90;;;;;;5020651;28;21194;-66
2021/10/14 00:08:35;;;;;;;8.27;7.03;;;11.50;99.90;;;;;;5019667;28;21158;-65
2021/10/14 00:11:01;;;;;;;7.03;6.33;;;11.60;99.90;;;;;;5018735;28;20739;-66
2021/10/14 00:13:26;;;;;;;7.70;6.87;;;11.60;99.90;;;;;;5018688;28;20221;-67
2021/10/14 00:15:53;;;;;;;7.80;7.00;;;11.60;99.90;;;;;;5019234;28;20288;-67
2021/10/14 00:18:24;;;;;;;12.07;7.83;;;11.60;99.90;;;;;;5020533;28;20200;-65
2021/10/14 00:20:54;;;;;;;8.10;7.10;;;11.60;99.90;;;;;;5018393;28;21026;-66
2021/10/14 00:23:23;;;;;;;9.23;7.63;;;11.70;99.90;;;;;;5018364;28;20632;-66
2021/10/14 00:25:49;;;;;;;9.00;7.40;;;11.70;99.90;;;;;;5025405;28;21230;-66
2021/10/14 00:28:15;;;;;;;8.23;7.43;;;11.70;99.90;;;;;;5015848;28;20648;-66
2021/10/14 00:30:42;;;;;;;9.60;8.53;;;11.70;99.90;;;;;;5019386;28;20193;-66
2021/10/14 00:33:10;;;;;;;9.23;7.87;;;11.70;99.90;;;;;;5018863;28;20264;-65
2021/10/14 00:35:38;;;;;;;11.20;9.00;;;11.70;99.90;;;;;;5019046;28;20654;-65
2021/10/14 00:38:06;;;;;;;10.07;9.07;;;11.70;99.90;;;;;;5019930;28;20639;-66
2021/10/14 00:40:37;;;;;;;10.53;9.27;;;11.70;99.90;;;;;;5018959;28;20965;-65
2021/10/14 00:43:05;;;;;;;11.17;9.20;;;11.80;99.90;;;;;;5018021;28;20634;-66
2021/10/14 00:45:31;;;;;;;10.50;9.40;;;11.80;99.90;;;;;;5019640;28;21075;-66
2021/10/14 00:48:01;;;;;;;11.83;8.73;;;11.80;99.90;;;;;;5018808;28;20615;-66
2021/10/14 00:50:26;;;;;;;10.67;9.23;;;11.80;99.90;;;;;;5018911;28;20650;-66
2021/10/14 00:52:54;;;;;;;10.53;9.43;;;11.80;99.90;;;;;;5020166;28;20600;-67
2021/10/14 00:55:23;;;;;;;11.83;9.43;;;11.80;99.90;;;;;;5016154;28;20310;-66
2021/10/14 00:57:51;;;;;;;12.30;9.90;;;11.80;99.90;;;;;;5024844;28;20648;-66
2021/10/14 01:00:21;;;;;;;14.27;9.97;;;11.90;99.90;;;;;;5016871;28;20627;-67
2021/10/14 01:02:51;;;;;;;11.13;9.43;;;11.90;99.90;;;;;;5018061;28;20623;-66
2021/10/14 01:05:17;;;;;;;13.37;9.67;;;11.90;99.90;;;;;;5022693;28;20631;-66
2021/10/14 01:07:46;;;;;;;12.40;9.37;;;11.90;99.90;;;;;;5019081;28;20611;-65
2021/10/14 01:10:14;;;;;;;11.00;9.80;;;11.90;99.90;;;;;;5018976;28;20205;-66
2021/10/14 01:12:40;;;;;;;13.67;9.60;;;12.00;99.90;;;;;;5019343;28;20725;-67
2021/10/14 01:15:21;;;;;;;13.60;9.80;;;12.00;99.90;;;;;;5022432;28;20636;-66
2021/10/14 01:17:48;;;;;;;10.87;9.20;;;12.00;99.90;;;;;;5017933;28;20609;-67
2021/10/14 01:20:14;;;;;;;12.00;9.77;;;12.00;99.90;;;;;;5019237;28;20604;-66
2021/10/14 01:22:49;;;;;;;12.30;10.73;;;12.00;99.90;;;;;;5016569;28;20649;-65
2021/10/14 01:25:14;;;;;;;13.33;9.93;;;12.00;99.90;;;;;;5017313;28;20217;-66
2021/10/14 01:27:43;;;;;;;12.43;9.83;;;12.00;99.90;;;;;;5015131;28;21229;-66
2021/10/14 01:30:10;;;;;;;12.00;9.77;;;12.00;99.90;;;;;;5017880;28;20196;-65
2021/10/14 01:32:42;;;;;;;12.70;10.07;;;12.00;99.90;;;;;;5017742;28;20659;-66
2021/10/14 01:35:08;;;;;;;14.47;10.33;;;12.10;99.90;;;;;;5018532;28;20696;-67
2021/10/14 01:37:38;;;;;;;13.77;9.10;;;12.10;99.90;;;;;;5017420;28;20701;-67
2021/10/14 01:40:06;;;;;;;10.20;9.00;;;12.10;99.90;;;;;;5018365;28;20653;-66
2021/10/14 01:42:34;;;;;;;10.90;8.80;;;12.10;99.90;;;;;;5018336;28;21167;-65
2021/10/14 01:45:01;;;;;;;10.60;9.50;;;12.10;99.90;;;;;;5017082;28;20722;-65
2021/10/14 01:47:33;;;;;;;11.10;8.93;;;12.20;99.90;;;;;;5016831;28;20615;-66
2021/10/14 01:49:59;;;;;;;12.40;8.80;;;12.20;99.90;;;;;;5022047;28;20685;-66
2021/10/14 01:52:26;;;;;;;10.40;7.70;;;12.20;99.90;;;;;;5018487;28;20735;-65
2021/10/14 01:54:52;;;;;;;11.47;8.50;;;12.20;99.90;;;;;;5017354;28;20275;-66
2021/10/14 01:57:18;;;;;;;10.17;8.27;;;12.20;99.90;;;;;;5022864;28;20650;-66
2021/10/14 01:59:43;;;;;;;10.70;8.30;;;12.20;99.90;;;;;;5017659;28;20351;-65
2021/10/14 02:02:09;;;;;;;10.00;7.57;;;12.20;99.90;;;;;;5018485;28;20219;-65
2021/10/14 02:04:47;;;;;;;9.80;7.27;;;12.30;99.90;;;;;;5022118;28;20252;-66
2021/10/14 02:07:20;;;;;;;8.67;7.20;;;12.30;99.90;;;;;;5016708;28;20204;-66
2021/10/14 02:09:45;;;;;;;9.60;6.90;;;12.30;99.90;;;;;;5016351;28;21010;-66
2021/10/14 02:12:11;;;;;;;9.00;6.53;;;12.20;99.90;;;;;;5016444;28;21175;-67
2021/10/14 02:14:37;;;;;;;9.47;7.63;;;12.30;99.90;;;;;;5016660;28;20741;-66
2021/10/14 02:17:02;;;;;;;7.50;6.60;;;12.30;99.90;;;;;;5017348;28;20215;-67
2021/10/14 02:19:28;;;;;;;8.47;7.00;;;12.30;99.90;;;;;;5017465;28;20192;-66
2021/10/14 02:21:53;;;;;;;8.67;6.53;;;12.30;99.90;;;;;;5016726;28;20680;-67
2021/10/14 02:24:19;;;;;;;9.43;7.60;;;12.40;99.90;;;;;;5017035;28;20285;-65
2021/10/14 02:26:45;;;;;;;8.70;7.57;;;12.30;99.90;;;;;;5017327;28;20189;-65
2021/10/14 02:29:12;;;;;;;8.00;6.63;;;12.40;99.90;;;;;;5015835;28;20197;-65
2021/10/14 02:31:40;;;;;;;6.80;6.10;;;12.40;99.90;;;;;;5017339;28;20204;-66
2021/10/14 02:34:06;;;;;;;6.90;6.20;;;12.40;99.90;;;;;;5016507;28;20667;-65
2021/10/14 02:36:34;;;;;;;6.83;5.60;;;12.40;99.90;;;;;;5018262;28;20644;-66
2021/10/14 02:39:00;;;;;;;8.57;6.57;;;12.40;99.90;;;;;;5015625;28;20703;-65
2021/10/14 02:41:25;;;;;;;7.07;6.20;;;12.40;99.90;;;;;;5017491;28;20631;-66
2021/10/14 02:43:53;;;;;;;8.47;6.47;;;12.40;99.90;;;;;;5016858;28;21008;-66
2021/10/14 02:46:19;;;;;;;8.87;7.07;;;12.50;99.90;;;;;;5016680;28;20737;-66
2021/10/14 02:48:44;;;;;;;7.53;6.57;;;12.50;99.90;;;;;;5017515;28;20718;-66
2021/10/14 02:51:12;;;;;;;7.20;6.13;;;12.50;99.90;;;;;;5017319;28;20213;-66
2021/10/14 02:53:38;;;;;;;7.30;6.30;;;12.50;99.90;;;;;;5016149;28;20216;-67
2021/10/14 02:56:03;;;;;;;9.20;6.80;;;12.50;99.90;;;;;;5016030;28;20648;-66
2021/10/14 02:58:34;;;;;;;10.50;8.67;;;12.50;99.90;;;;;;5017197;28;20189;-66
2021/10/14 03:01:02;;;;;;;9.80;7.70;;;12.50;99.90;;;;;;5018006;28;20320;-65
2021/10/14 03:03:28;;;;;;;10.27;7.80;;;12.60;99.90;;;;;;5018873;28;20624;-66
2021/10/14 03:05:53;;;;;;;9.97;8.37;;;12.60;99.90;;;;;;5019940;28;20703;-65
2021/10/14 03:08:19;;;;;;;11.60;7.53;;;12.60;99.90;;;;;;5019957;28;20195;-65
2021/10/14 03:10:47;;;;;;;10.27;8.17;;;12.60;99.90;;;;;;5020837;28;20243;-66
2021/10/14 03:13:13;;;;;;;12.60;8.40;;;12.60;99.90;;;;;;5025508;28;20527;-67
2021/10/14 03:15:41;;;;;;;14.23;9.67;;;12.60;99.90;;;;;;5021189;28;20607;-66
2021/10/14 03:18:09;;;;;;;10.63;8.80;;;12.70;99.90;;;;;;5019844;28;20199;-66
2021/10/14 03:20:37;;;;;;;11.67;8.87;;;12.70;99.90;;;;;;5021390;28;21131;-65
2021/10/14 03:23:02;;;;;;;11.80;8.90;;;12.70;99.90;;;;;;5018517;28;20619;-66
2021/10/14 03:25:28;;;;;;;14.57;10.97;;;12.70;99.90;;;;;;5019531;28;20600;-66
2021/10/14 03:27:53;;;;;;;13.70;10.00;;;12.70;99.90;;;;;;5020558;28;20188;-66
2021/10/14 03:30:19;;;;;;;14.57;9.67;;;12.70;99.90;;;;;;5022323;28;20204;-66
2021/10/14 03:32:47;;;;;;;14.37;10.27;;;12.70;99.90;;;;;;5018191;28;20288;-66
2021/10/14 03:35:16;;;;;;;15.23;11.00;;;12.70;99.90;;;;;;5019766;28;20414;-66
2021/10/14 03:37:41;;;;;;;15.07;10.40;;;12.70;99.90;;;;;;5024567;28;20662;-66
2021/10/14 03:40:07;;;;;;;16.80;11.17;;;12.80;99.90;;;;;;5020848;28;20612;-66
2021/10/14 03:42:33;;;;;;;13.17;9.33;;;12.80;99.90;;;;;;5019324;28;20209;-66
2021/10/14 03:44:58;;;;;;;13.23;10.73;;;12.80;99.90;;;;;;5019791;28;20651;-66
2021/10/14 03:47:24;;;;;;;12.80;9.37;;;12.80;99.90;;;;;;5019213;28;20197;-67
2021/10/14 03:49:50;;;;;;;12.63;9.90;;;12.80;99.90;;;;;;5020383;28;20196;-66
2021/10/14 03:52:16;;;;;;;11.40;7.93;;;12.80;99.90;;;;;;5018270;28;20224;-65
2021/10/14 03:54:44;;;;;;;11.40;8.90;;;12.80;99.90;;;;;;5018931;28;20723;-66
2021/10/14 03:57:09;;;;;;;11.00;8.43;;;12.90;99.90;;;;;;5018903;28;20244;-65
2021/10/14 03:59:37;;;;;;;9.83;8.40;;;12.90;99.90;;;;;;5020392;28;21191;-66
2021/10/14 04:02:03;;;;;;;9.43;6.93;;;12.90;99.90;;;;;;5019378;28;20287;-66
2021/10/14 04:04:35;;;;;;;9.60;6.93;;;12.90;99.90;;;;;;5017859;28;20877;-66
2021/10/14 04:07:01;;;;;;;8.10;6.70;;;12.90;99.90;;;;;;5019545;28;20310;-67
2021/10/14 04:09:26;;;;;;;7.57;6.10;;;12.90;99.90;;;;;;5019690;28;20706;-67
2021/10/14 04:11:52;;;;;;;6.80;5.73;;;12.90;99.90;;;;;;5024713;28;20225;-65
2021/10/14 04:14:18;;;;;;;7.53;5.97;;;12.90;99.90;;;;;;5018668;28;20225;-65
2021/10/14 04:16:45;;;;;;;6.07;5.00;;;12.90;99.90;;;;;;5018017;28;20377;-66
2021/10/14 04:19:11;;;;;;;5.60;4.97;;;12.90;99.90;;;;;;5019576;28;20295;-67
2021/10/14 04:21:38;;;;;;;5.03;4.50;;;12.90;99.90;;;;;;5018927;28;20803;-66
2021/10/14 04:24:04;;;;;;;6.10;4.97;;;13.00;99.90;;;;;;5018492;28;20308;-66
2021/10/14 04:26:29;;;;;;;4.83;4.33;;;13.00;99.90;;;;;;5020953;28;20773;-66
2021/10/14 04:28:55;;;;;;;4.83;4.13;;;13.00;99.90;;;;;;5019083;28;20607;-66
2021/10/14 04:31:21;;;;;;;4.80;3.77;;;13.00;99.90;;;;;;5015163;28;20205;-66
2021/10/14 04:33:46;;;;;;;3.63;3.33;;;13.00;99.90;;;;;;5018614;28;20329;-65
2021/10/14 04:36:14;;;;;;;4.47;3.87;;;13.00;99.90;;;;;;5021105;28;20216;-66
2021/10/14 04:38:42;;;;;;;4.97;3.47;;;13.00;99.90;;;;;;5025859;28;20196;-66
2021/10/14 04:41:10;;;;;;;3.93;3.57;;;13.10;99.90;;;;;;5019822;28;20670;-65
2021/10/14 04:43:36;;;;;;;3.93;3.23;;;13.10;99.90;;;;;;5020533;28;20640;-66
2021/10/14 04:46:01;;;;;;;4.10;3.70;;;13.10;99.90;;;;;;5021184;28;20616;-66
2021/10/14 04:48:29;;;;;;;3.73;3.43;;;13.10;99.90;;;;;;5020279;28;20192;-66
2021/10/14 04:50:55;;;;;;;4.40;3.80;;;13.10;99.90;;;;;;5019097;28;20580;-66
2021/10/14 04:53:20;;;;;;;4.20;3.80;;;13.10;99.90;;;;;;5020421;28;20626;-65
2021/10/14 04:55:46;;;;;;;3.93;3.63;;;13.10;99.90;;;;;;5026454;28;20213;-66
2021/10/14 04:58:17;;;;;;;3.90;3.50;;;13.10;99.90;;;;;;5019573;28;20236;-67
2021/10/14 05:00:45;;;;;;;4.07;3.47;;;13.10;99.90;;;;;;5025349;28;20192;-66
2021/10/14 05:03:11;;;;;;;4.37;3.67;;;13.10;99.90;;;;;;5019907;28;20608;-66
2021/10/14 05:05:36;;;;;;;4.00;3.70;;;13.20;99.90;;;;;;5021993;28;20600;-66
2021/10/14 05:08:07;;;;;;;4.20;3.40;;;13.20;99.90;;;;;;5019268;28;20177;-66
2021/10/14 05:10:37;;;;;;;3.17;2.87;;;13.20;99.90;;;;;;5020475;28;20319;-66
2021/10/14 05:13:03;;;;;;;4.27;3.20;;;13.20;99.90;;;;;;5020439;28;21092;-65
2021/10/14 05:15:32;;;;;;;3.10;2.80;;;13.20;99.90;;;;;;5021800;28;20647;-65
2021/10/14 05:18:00;;;;;;;4.00;3.43;;;13.20;99.90;;;;;;5019214;28;20185;-65
2021/10/14 05:20:25;;;;;;;3.57;3.27;;;13.20;99.90;;;;;;5020515;28;20623;-65
2021/10/14 05:22:51;;;;;;;3.80;3.07;;;13.20;99.90;;;;;;5019590;28;20615;-66
2021/10/14 05:25:17;;;;;;;3.40;3.10;;;13.20;99.90;;;;;;5018695;28;20245;-66
2021/10/14 05:27:42;;;;;;;3.87;3.50;;;13.30;99.90;;;;;;5020422;28;20608;-66
2021/10/14 05:30:11;;;;;;;4.43;3.40;;;13.20;99.90;;;;;;5019162;28;20186;-65
2021/10/14 05:32:36;;;;;;;3.43;3.00;;;13.20;99.90;;;;;;5018013;28;20215;-66
2021/10/14 05:35:03;;;;;;;6.23;4.00;;;13.30;99.90;;;;;;5020150;28;20616;-66
2021/10/14 05:37:31;;;;;;;3.97;3.57;;;13.30;99.90;;;;;;5020943;28;20213;-66
2021/10/14 05:39:59;;;;;;;4.20;3.80;;;13.30;99.90;;;;;;5024309;28;20677;-66
2021/10/14 05:42:25;;;;;;;4.27;3.33;;;13.30;99.90;;;;;;5019348;28;20650;-66
2021/10/14 05:44:53;;;;;;;4.63;4.00;;;13.30;99.90;;;;;;5020366;28;20620;-67
2021/10/14 05:47:19;;;;;;;5.27;3.80;;;13.30;99.90;;;;;;5020238;28;20599;-66
2021/10/14 05:49:49;;;;;;;4.47;4.03;;;13.40;99.90;;;;;;5020940;28;20634;-66
2021/10/14 05:52:15;;;;;;;5.70;5.10;;;13.40;99.90;;;;;;5020166;28;20212;-66
2021/10/14 05:54:40;;;;;;;7.40;5.13;;;13.40;99.90;;;;;;5018387;28;20634;-66
2021/10/14 05:57:13;;;;;;;7.30;6.03;;;13.40;99.90;;;;;;5019205;28;20571;-66
2021/10/14 05:59:39;;;;;;;10.20;6.60;;;13.40;99.90;;;;;;5021287;28;20180;-66
2021/10/14 06:02:07;;;;;;;9.20;7.30;;;13.40;99.90;;;;;;5020205;28;20629;-66
2021/10/14 06:04:33;;;;;;;11.67;8.43;;;13.40;99.90;;;;;;5019515;28;20225;-67
2021/10/14 06:06:58;;;;;;;10.90;7.70;;;13.40;99.90;;;;;;5020535;28;20608;-66
2021/10/14 06:09:26;;;;;;;12.80;8.77;;;13.50;99.90;;;;;;5020141;28;20185;-66
2021/10/14 06:11:52;;;;;;;10.33;7.60;;;13.50;99.90;;;;;;5020662;28;20197;-66
2021/10/14 06:14:17;;;;;;;11.90;7.77;;;13.50;99.90;;;;;;5018341;28;20627;-67
2021/10/14 06:16:43;;;;;;;9.30;6.93;;;13.50;99.90;;;;;;5020750;28;20215;-66
2021/10/14 06:19:08;;;;;;;12.23;7.60;;;13.50;99.90;;;;;;5019802;28;20686;-65
2021/10/14 06:21:37;;;;;;;8.93;7.20;;;13.50;99.90;;;;;;5019150;28;20592;-66
2021/10/14 06:24:14;;;;;;;14.27;8.60;;;13.50;99.90;;;;;;5018056;28;20292;-66
2021/10/14 06:26:39;;;;;;;11.73;7.90;;;13.50;99.90;;;;;;5020220;28;20591;-66
2021/10/14 06:29:05;;;;;;;13.63;8.27;;;13.50;99.90;;;;;;5018667;28;20616;-66
2021/10/14 06:31:31;;;;;;;9.37;7.60;;;13.50;99.90;;;;;;5019408;28;20284;-65
2021/10/14 06:33:56;;;;;;;13.07;7.50;;;13.50;99.90;;;;;;5014682;28;20248;-66
2021/10/14 06:36:27;;;;;;;11.50;7.73;;;13.50;99.90;;;;;;5016946;28;20319;-67
2021/10/14 06:38:53;;;;;;;10.07;7.50;;;13.50;99.90;;;;;;5020886;28;20192;-66
2021/10/14 06:41:18;;;;;;;8.40;6.90;;;13.50;99.90;;;;;;5021508;28;20706;-66
2021/10/14 06:43:46;;;;;;;11.23;7.17;;;13.50;99.90;;;;;;5021138;28;20323;-66
2021/10/14 06:46:15;;;;;;;10.57;7.40;;;13.50;99.90;;;;;;5022825;28;20208;-66
2021/10/14 06:48:40;;;;;;;10.97;7.23;;;13.50;99.90;;;;;;5020279;28;20605;-66
2021/10/14 06:51:06;;;;;;;8.40;6.37;;;13.60;99.90;;;;;;5019821;28;20734;-67
2021/10/14 06:53:34;;;;;;;11.27;6.00;;;13.60;99.90;;;;;;5021937;28;20227;-66
2021/10/14 06:56:00;;;;;;;8.50;5.90;;;13.60;99.90;;;;;;5020179;28;20273;-66
2021/10/14 06:58:26;;;;;;;7.93;5.23;;;13.60;99.90;;;;;;5025699;28;20625;-67
2021/10/14 07:00:52;;;;;;;8.57;5.40;;;13.60;99.90;;;;;;5020263;28;20654;-65
2021/10/14 07:03:17;;;;;;;7.77;5.43;;;13.60;99.90;;;;;;5021074;28;20296;-66
2021/10/14 07:05:43;;;;;;;12.93;6.53;;;13.60;99.90;;;;;;5028556;28;20205;-65
2021/10/14 07:08:09;;;;;;;9.17;6.43;;;13.70;99.90;;;;;;5020136;28;20276;-67
2021/10/14 07:10:34;;;;;;;8.60;5.57;;;13.70;99.90;;;;;;5019583;28;20665;-66
2021/10/14 07:13:06;;;;;;;8.10;5.40;;;13.70;99.90;;;;;;5020280;28;20188;-66
2021/10/14 07:15:32;;;;;;;8.50;5.30;;;13.70;99.90;;;;;;5020536;28;20231;-66
2021/10/14 07:17:59;;;;;;;8.63;5.60;;;13.80;99.90;;;;;;5018446;28;20711;-66
2021/10/14 07:20:27;;;;;;;8.73;5.50;;;13.80;99.90;;;;;;5020229;28;21252;-67
2021/10/14 07:22:53;;;;;;;9.43;5.60;;;13.80;99.90;;;;;;5021380;28;20600;-67
2021/10/14 07:25:18;;;;;;;6.10;4.70;;;13.80;99.90;;;;;;5018911;28;21095;-67
2021/10/14 07:27:47;;;;;;;7.27;4.73;;;13.70;99.90;;;;;;5021423;28;20575;-66
2021/10/14 07:30:13;;;;;;;7.70;5.20;;;13.70;99.90;;;;;;5020270;28;20185;-66
2021/10/14 07:32:41;;;;;;;9.90;5.83;;;13.70;99.90;;;;;;5021679;28;20655;-66
2021/10/14 07:35:07;;;;;;;9.43;5.70;;;13.70;99.90;;;;;;5016773;28;20217;-67
2021/10/14 07:37:38;;;;;;;12.07;6.50;;;13.80;99.90;;;;;;5019660;28;20758;-66
2021/10/14 07:40:04;;;;;;;11.03;6.87;;;13.80;99.90;;;;;;5021103;28;20602;-66
2021/10/14 07:42:32;;;;;;;9.90;6.83;;;13.80;99.90;;;;;;5033970;28;20746;-66
2021/10/14 07:45:00;;;;;;;12.00;7.10;;;13.70;99.90;;;;;;5020746;28;21237;-67
2021/10/14 07:47:25;;;;;;;8.67;6.50;;;13.70;99.90;;;;;;5026925;28;21337;-66
2021/10/14 07:49:51;;;;;;;7.80;7.10;;;13.70;99.90;;;;;;5020777;28;20604;-66
2021/10/14 07:52:16;;;;;;;7.63;6.90;;;13.80;99.90;;;;;;5018830;28;20705;-66
2021/10/14 07:54:42;;;;;;;8.63;7.53;;;13.80;99.90;;;;;;5018761;28;20216;-67
2021/10/14 07:57:08;;;;;;;8.23;7.10;;;13.80;99.90;;;;;;5019920;28;20213;-66
2021/10/14 07:59:33;;;;;;;10.00;7.20;;;13.80;99.90;;;;;;5018636;28;20181;-67
2021/10/14 08:01:59;;;;;;;7.60;6.90;;;13.80;99.90;;;;;;5017684;28;20213;-67
2021/10/14 08:04:27;;;;;;;8.67;6.60;;;13.80;99.90;;;;;;5019690;28;20217;-66
2021/10/14 08:06:53;;;;;;;9.70;7.87;;;13.80;99.90;;;;;;5020105;28;20177;-67
2021/10/14 08:09:25;;;;;;;8.37;6.70;;;13.80;99.90;;;;;;5020257;28;21197;-67
2021/10/14 08:11:53;;;;;;;10.53;7.50;;;13.80;99.90;;;;;;5020480;28;20219;-66
2021/10/14 08:14:21;;;;;;;8.47;7.67;;;13.80;99.90;;;;;;5020297;28;20619;-65
2021/10/14 08:16:46;;;;;;;8.30;6.90;;;13.80;99.90;;;;;;5019636;28;20712;-66
2021/10/14 08:19:12;;;;;;;9.27;7.10;;;13.80;99.90;;;;;;5019959;28;20683;-66
2021/10/14 08:21:37;;;;;;;9.30;7.77;;;13.90;99.90;;;;;;5020200;28;20208;-66
2021/10/14 08:24:03;;;;;;;10.73;8.10;;;13.90;99.90;;;;;;5020516;28;20220;-66
2021/10/14 08:26:29;;;;;;;10.10;8.10;;;13.90;99.90;;;;;;5018192;28;20185;-65
2021/10/14 08:28:54;;;;;;;8.37;7.20;;;13.90;99.90;;;;;;5020444;28;20267;-66
2021/10/14 08:31:24;;;;;;;10.70;8.23;;;13.90;99.90;;;;;;5020580;28;20201;-65
2021/10/14 08:33:51;;;;;;;11.10;8.20;;;13.90;99.90;;;;;;5017970;28;20216;-65
2021/10/14 08:36:21;;;;;;;11.97;7.80;;;13.90;99.90;;;;;;5016037;28;20639;-66
2021/10/14 08:38:49;;;;;;;10.57;7.57;;;13.90;99.90;;;;;;5019760;28;21016;-67
2021/10/14 08:41:21;;;;;;;10.30;7.17;;;13.90;99.90;;;;;;5017715;28;20636;-66
2021/10/14 08:43:48;;;;;;;9.40;7.03;;;13.90;99.90;;;;;;5018086;28;21004;-66
2021/10/14 08:46:14;;;;;;;9.37;7.23;;;13.90;99.90;;;;;;5019404;28;20613;-66
2021/10/14 08:48:49;;;;;;;9.80;7.00;;;14.00;99.90;;;;;;5018051;28;20604;-66
2021/10/14 08:51:15;;;;;;;7.47;6.57;;;14.00;99.90;;;;;;5019925;28;20974;-66
2021/10/14 08:53:52;;;;;;;11.80;7.03;;;14.00;99.90;;;;;;5017151;28;20685;-65
2021/10/14 08:56:18;;;;;;;9.60;7.33;;;14.10;99.90;;;;;;5018101;28;20615;-66
2021/10/14 08:58:48;;;;;;;9.57;7.67;;;14.20;99.90;;;;;;5019754;28;20704;-66
2021/10/14 09:01:15;;;;;;;6.80;6.10;;;14.20;99.90;;;;;;5017952;28;20212;-67
2021/10/14 09:03:45;;;;;;;7.67;6.30;;;14.20;99.90;;;;;;5017114;28;20624;-67
2021/10/14 09:06:14;;;;;;;6.87;5.90;;;14.30;99.90;;;;;;5018724;28;20939;-67
2021/10/14 09:08:46;;;;;;;7.63;5.83;;;14.20;99.90;;;;;;5018387;28;20601;-67
2021/10/14 09:11:22;;;;;;;8.13;5.53;;;14.30;99.90;;;;;;5018287;28;20986;-67
2021/10/14 09:13:54;;;;;;;6.43;5.77;;;14.30;99.90;;;;;;5018650;28;20884;-66
2021/10/14 09:16:23;;;;;;;8.43;5.63;;;14.40;99.90;;;;;;5019433;28;20646;-66
2021/10/14 09:18:51;;;;;;;9.60;6.40;;;14.50;99.90;;;;;;5018258;28;21002;-66
2021/10/14 09:21:27;;;;;;;5.53;4.97;;;14.60;99.90;;;;;;5024759;28;20686;-66
2021/10/14 09:23:53;;;;;;;5.50;4.90;;;14.50;99.90;;;;;;5019253;28;20717;-66
2021/10/14 09:26:34;;;;;;;6.67;5.07;;;14.50;99.90;;;;;;5016530;28;20624;-65
2021/10/14 09:29:15;;;;;;;6.30;5.00;;;14.60;99.90;;;;;;5018485;28;20661;-66
2021/10/14 09:31:48;;;;;;;5.10;4.30;;;14.60;99.90;;;;;;5019746;28;20982;-65
2021/10/14 09:34:39;;;;;;;7.10;4.77;;;14.70;99.90;;;;;;5016979;28;20647;-66
2021/10/14 09:37:24;;;;;;;4.70;4.30;;;14.80;99.90;;;;;;5014896;28;20635;-65
2021/10/14 09:40:06;;;;;;;6.50;4.53;;;14.80;99.90;;;;;;5019420;28;20599;-66
2021/10/14 09:43:03;;;;;;;6.13;4.47;;;14.70;99.90;;;;;;5017944;28;21293;-65
2021/10/14 09:45:33;;;;;;;4.77;4.20;;;14.70;99.90;;;;;;5023356;28;20636;-65
2021/10/14 09:48:11;;;;;;;4.20;3.90;;;14.70;99.90;;;;;;5015503;28;20634;-65
2021/10/14 09:50:41;;;;;;;4.00;3.30;;;14.70;99.90;;;;;;5019308;28;20623;-65
2021/10/14 09:53:10;;;;;;;4.60;3.10;;;14.80;99.90;;;;;;5016481;28;20744;-65
2021/10/14 09:55:38;;;;;;;3.70;3.30;;;14.80;99.90;;;;;;5016781;28;21222;-66
2021/10/14 09:58:05;;;;;;;2.70;2.50;;;14.80;99.90;;;;;;5016368;28;20640;-65
2021/10/14 10:00:31;;;;;;;3.47;2.70;;;14.80;99.90;;;;;;5025022;28;21009;-65
2021/10/14 10:02:59;;;;;;;3.13;2.33;;;14.70;99.90;;;;;;5017911;28;20591;-66
2021/10/14 10:05:27;;;;;;;3.20;2.13;;;14.70;99.90;;;;;;5016871;28;20198;-66
2021/10/14 10:07:57;;;;;;;2.93;2.13;;;14.70;99.90;;;;;;5017785;28;20715;-66
2021/10/14 10:10:25;;;;;;;4.23;2.50;;;14.80;99.90;;;;;;5017512;28;21022;-67
2021/10/14 10:12:57;;;;;;;3.00;2.20;;;14.80;99.90;;;;;;5022752;28;20611;-67
2021/10/14 10:16:11;;;;;;;3.30;2.57;;;14.80;99.90;;;;;;5017130;28;20994;-66
2021/10/14 10:18:39;;;;;;;2.33;2.13;;;14.80;99.90;;;;;;5004755;28;20615;-66
2021/10/14 10:21:09;;;;;;;2.17;2.07;;;14.80;99.90;;;;;;5016096;28;21161;-66
2021/10/14 10:23:49;;;;;;;2.60;2.40;;;14.80;99.90;;;;;;5016245;28;20758;-66
2021/10/14 10:26:33;;;;;;;2.93;2.63;;;14.80;99.90;;;;;;5015909;28;20618;-66
2021/10/14 10:29:16;;;;;;;3.00;2.53;;;14.90;99.90;;;;;;5018220;28;21072;-67
2021/10/14 10:37:59;;;;;;;3.20;2.90;;;15.00;99.90;;;;;;5015246;28;20742;-67
2021/10/14 10:40:29;;;;;;;3.40;3.13;;;15.10;99.90;;;;;;5016483;28;20603;-66
2021/10/14 10:43:08;;;;;;;3.03;2.83;;;15.10;99.90;;;;;;5016613;28;20636;-67
2021/10/14 10:45:52;;;;;;;2.93;2.73;;;15.10;99.90;;;;;;5016205;28;20692;-66
2021/10/14 10:48:36;;;;;;;2.83;2.60;;;15.10;99.90;;;;;;5017283;28;20610;-66
2021/10/14 10:51:04;;;;;;;3.23;2.93;;;15.10;99.90;;;;;;5017852;28;20634;-66
2021/10/14 10:53:58;;;;;;;2.50;2.30;;;15.20;99.90;;;;;;5015118;28;20624;-66
2021/10/14 10:56:29;;;;;;;3.40;2.20;;;15.20;99.90;;;;;;5013262;28;20679;-66
2021/10/14 10:58:56;;;;;;;3.17;2.40;;;15.10;99.90;;;;;;5018159;28;20608;-67
2021/10/14 11:01:24;;;;;;;2.77;2.47;;;15.10;99.90;;;;;;5016796;28;20707;-66
2021/10/14 11:03:52;;;;;;;2.93;2.30;;;15.00;99.90;;;;;;5010018;28;20742;-66
2021/10/14 11:06:20;;;;;;;2.77;2.20;;;15.10;99.90;;;;;;5014373;28;20939;-66
2021/10/14 11:08:46;;;;;;;2.50;2.23;;;15.10;99.90;;;;;;5015678;28;20627;-66
2021/10/14 11:11:22;;;;;;;3.10;2.00;;;15.10;99.90;;;;;;5014035;28;20627;-66
2021/10/14 11:13:57;;;;;;;2.87;2.00;;;15.10;99.90;;;;;;5012933;28;20278;-67
2021/10/14 11:16:27;;;;;;;2.27;2.10;;;15.20;99.90;;;;;;5013825;28;20659;-66
2021/10/14 11:18:58;;;;;;;3.20;2.53;;;15.20;99.90;;;;;;5015129;28;20601;-66
2021/10/14 11:21:29;;;;;;;2.43;2.33;;;15.20;99.90;;;;;;5014191;28;20716;-66
2021/10/14 11:24:01;;;;;;;3.10;2.37;;;15.30;99.90;;;;;;5016173;28;20634;-66
2021/10/14 11:26:36;;;;;;;2.97;2.60;;;15.30;99.90;;;;;;5012357;28;20777;-67
2021/10/14 11:29:04;;;;;;;4.47;2.90;;;15.50;99.90;;;;;;5011169;28;20670;-66
2021/10/14 11:31:40;;;;;;;2.83;2.57;;;15.40;99.90;;;;;;5018284;28;21175;-66
2021/10/14 11:34:26;;;;;;;4.73;3.37;;;15.50;99.90;;;;;;5012629;28;20759;-66
2021/10/14 11:37:02;;;;;;;3.27;2.90;;;15.50;99.90;;;;;;5005879;28;21180;-68
2021/10/14 11:39:40;;;;;;;2.37;2.17;;;15.50;99.90;;;;;;5006866;28;20611;-66
2021/10/14 11:42:10;;;;;;;3.87;2.70;;;15.50;99.90;;;;;;5011332;28;21000;-68
2021/10/14 11:44:37;;;;;;;3.67;2.70;;;15.50;99.90;;;;;;5010208;28;20697;-68
2021/10/14 11:47:06;;;;;;;3.53;2.90;;;15.40;99.90;;;;;;5013937;28;20611;-68
2021/10/14 11:49:32;;;;;;;3.43;3.13;;;15.50;99.90;;;;;;5017101;28;20623;-69
2021/10/14 11:52:07;;;;;;;3.13;2.80;;;15.40;99.90;;;;;;5013974;28;21167;-69
2021/10/14 11:54:35;;;;;;;3.20;2.90;;;15.30;99.90;;;;;;5015267;28;20224;-67
2021/10/14 11:57:02;;;;;;;3.10;2.80;;;15.40;99.90;;;;;;5015188;28;20652;-67
2021/10/14 11:59:29;;;;;;;3.53;3.23;;;15.40;99.90;;;;;;5014334;28;21043;-68
2021/10/14 12:02:05;;;;;;;4.23;3.37;;;15.40;99.90;;;;;;5014729;28;20654;-66
2021/10/14 12:04:56;;;;;;;5.10;3.57;;;15.50;99.90;;;;;;5013182;28;21977;-67
2021/10/14 12:07:26;;;;;;;4.33;3.23;;;15.50;99.90;;;;;;5014039;28;21135;-69
2021/10/14 12:09:56;;;;;;;4.97;4.20;;;15.50;99.90;;;;;;5014407;28;20607;-68
2021/10/14 12:12:30;;;;;;;4.20;3.80;;;15.60;99.90;;;;;;5015629;28;21041;-68
2021/10/14 12:15:04;;;;;;;4.10;3.80;;;15.60;99.90;;;;;;5018394;28;20656;-68
2021/10/14 12:17:48;;;;;;;4.03;3.57;;;15.70;99.90;;;;;;5018483;28;20659;-67
2021/10/14 12:20:16;;;;;;;4.30;3.93;;;15.70;99.90;;;;;;5018008;28;20695;-67
2021/10/14 12:22:49;;;;;;;4.33;3.93;;;15.80;99.90;;;;;;5017279;28;21061;-68
2021/10/14 12:25:36;;;;;;;5.10;4.23;;;15.80;99.90;;;;;;5012529;28;20957;-70
2021/10/14 12:28:03;;;;;;;5.90;4.13;;;15.80;99.90;;;;;;5016061;28;20687;-67
2021/10/14 12:30:37;;;;;;;6.13;4.90;;;15.80;99.90;;;;;;5013042;28;20623;-69
2021/10/14 12:33:12;;;;;;;4.80;4.40;;;15.70;99.90;;;;;;5008697;28;20693;-68
2021/10/14 12:35:44;;;;;;;5.80;5.30;;;15.70;99.90;;;;;;5017440;28;20619;-68
2021/10/14 12:38:16;;;;;;;6.17;5.57;;;15.70;99.90;;;;;;5014287;28;21082;-67
2021/10/14 12:40:58;;;;;;;5.80;5.13;;;15.70;99.90;;;;;;5019463;28;20649;-68
2021/10/14 12:43:32;;;;;;;7.33;5.97;;;15.70;99.90;;;;;;5013808;28;20666;-67
2021/10/14 12:46:21;;;;;;;6.33;5.73;;;15.80;99.90;;;;;;5010659;28;20625;-67
2021/10/14 12:51:18;;;;;;;6.50;5.90;;;15.60;99.90;;;;;;5013211;28;21015;-68
2021/10/14 12:53:53;;;;;;;6.60;5.87;;;15.60;99.90;;;;;;5010821;28;20221;-67
2021/10/14 12:56:21;;;;;;;6.33;5.70;;;15.60;99.90;;;;;;5009462;28;20672;-67
2021/10/14 12:58:48;;;;;;;6.70;5.60;;;15.60;99.90;;;;;;5010693;28;20718;-68
2021/10/14 13:01:18;;;;;;;7.27;6.27;;;15.50;99.90;;;;;;5009786;28;21266;-69